createdAt,value
2023-04-01T00:02:17.565Z,98245.50
2023-04-01T00:04:47.539Z,98242.97
2023-04-01T00:07:17.332Z,98241.19
2023-04-01T00:09:47.058Z,98236.00
2023-04-01T00:12:16.891Z,98245.72
2023-04-01T00:14:46.753Z,98238.75
2023-04-01T00:17:19.003Z,98243.22
2023-04-01T00:19:49.163Z,98230.81
2023-04-01T00:22:19.072Z,98236.97
2023-04-01T00:24:48.935Z,98234.09
2023-04-01T00:27:18.738Z,98235.66
2023-04-01T00:29:49.326Z,98233.75
2023-04-01T00:32:21.676Z,98226.56
2023-04-01T00:34:54.327Z,98221.16
2023-04-01T00:37:24.422Z,98227.38
2023-04-01T00:39:54.160Z,98231.59
2023-04-01T00:42:24.524Z,98230.78
2023-04-01T00:44:55.107Z,98234.25
2023-04-01T00:47:29.773Z,98227.28
2023-04-01T00:49:59.514Z,98225.50
2023-04-01T00:52:30.057Z,98236.88
2023-04-01T00:55:02.307Z,98225.59
2023-04-01T00:57:34.939Z,98224.88
2023-04-01T01:00:04.664Z,98227.50
2023-04-01T01:02:37.317Z,98223.16
2023-04-01T01:05:07.893Z,98217.88
2023-04-01T01:07:43.440Z,98213.59
2023-04-01T01:10:16.068Z,98210.94
2023-04-01T01:12:49.808Z,98215.25
2023-04-01T01:15:24.287Z,98213.47
2023-04-01T01:18:02.382Z,98213.47
2023-04-01T01:20:52.562Z,98211.66
2023-04-01T01:23:47.480Z,98212.59
2023-04-01T01:26:42.959Z,98211.78
2023-04-01T01:29:28.030Z,98206.84
2023-04-01T01:32:03.184Z,98201.66
2023-04-01T01:34:38.997Z,98208.13
2023-04-01T01:37:15.167Z,98201.28
2023-04-01T01:39:46.026Z,98203.19
2023-04-01T01:42:18.278Z,98208.69
2023-04-01T01:44:49.769Z,98207.25
2023-04-01T01:47:20.989Z,98215.59
2023-04-01T01:49:51.170Z,98208.16
2023-04-01T01:52:23.532Z,98210.28
2023-04-01T01:54:53.414Z,98208.81
2023-04-01T01:57:28.129Z,98219.59
2023-04-01T02:00:04.324Z,98217.91
2023-04-01T02:02:43.336Z,98202.06
2023-04-01T02:05:14.907Z,98217.91
2023-04-01T02:07:50.950Z,98216.34
2023-04-01T02:10:22.022Z,98215.50
2023-04-01T02:12:52.864Z,98220.03
2023-04-01T02:15:23.908Z,98219.31
2023-04-01T02:17:54.909Z,98222.03
2023-04-01T02:20:26.028Z,98216.88
2023-04-01T02:23:00.826Z,98223.34
2023-04-01T02:25:33.546Z,98225.38
2023-04-01T02:28:04.118Z,98218.63
2023-04-01T02:30:36.258Z,98211.75
2023-04-01T02:33:07.453Z,98212.00
2023-04-01T02:35:37.906Z,98212.81
2023-04-01T02:38:10.433Z,98222.63
2023-04-01T02:40:49.425Z,98214.84
2023-04-01T02:43:20.068Z,98213.16
2023-04-01T02:45:49.730Z,98220.34
2023-04-01T02:48:19.454Z,98218.75
2023-04-01T02:50:50.475Z,98217.16
2023-04-01T02:53:22.756Z,98212.94
2023-04-01T02:55:53.648Z,98218.47
2023-04-01T02:58:23.363Z,98223.97
2023-04-01T03:00:53.276Z,98221.31
2023-04-01T03:03:23.021Z,98219.75
2023-04-01T03:05:52.960Z,98210.25
2023-04-01T03:08:25.364Z,98220.03
2023-04-01T03:10:55.073Z,98220.97
2023-04-01T03:13:24.771Z,98217.47
2023-04-01T03:15:54.458Z,98218.22
2023-04-01T03:18:24.186Z,98226.06
2023-04-01T03:20:53.899Z,98223.31
2023-04-01T03:23:26.289Z,98227.44
2023-04-01T03:25:55.958Z,98229.94
2023-04-01T03:28:25.686Z,98226.38
2023-04-01T03:30:55.401Z,98236.81
2023-04-01T03:33:25.278Z,98233.34
2023-04-01T03:35:55.051Z,98235.03
2023-04-01T03:38:27.389Z,98230.47
2023-04-01T03:40:57.055Z,98238.16
2023-04-01T03:43:27.680Z,98238.09
2023-04-01T03:45:59.079Z,98236.16
2023-04-01T03:48:29.161Z,98238.59
2023-04-01T03:50:58.851Z,98238.47
2023-04-01T03:53:31.341Z,98248.06
2023-04-01T03:56:07.995Z,98234.78
2023-04-01T03:58:39.904Z,98240.06
2023-04-01T04:01:18.672Z,98236.69
2023-04-01T04:03:50.273Z,98241.09
2023-04-01T04:06:21.654Z,98237.75
2023-04-01T04:08:54.418Z,98245.66
2023-04-01T04:11:25.345Z,98242.19
2023-04-01T04:13:57.280Z,98245.66
2023-04-01T04:16:28.135Z,98242.19
2023-04-01T04:19:02.192Z,98250.13
2023-04-01T04:21:31.895Z,98246.50
2023-04-01T04:24:05.882Z,98242.09
2023-04-01T04:26:55.553Z,98242.09
2023-04-01T04:29:25.304Z,98253.25
2023-04-01T04:31:58.248Z,98251.34
2023-04-01T04:34:28.208Z,98253.13
2023-04-01T04:36:57.911Z,98249.66
2023-04-01T04:39:35.478Z,98244.38
2023-04-01T04:42:05.933Z,98251.34
2023-04-01T04:44:35.954Z,98239.94
2023-04-01T04:47:05.801Z,98257.47
2023-04-01T04:49:35.853Z,98258.34
2023-04-01T04:52:10.076Z,98261.81
2023-04-01T04:54:42.365Z,98248.50
2023-04-01T04:57:12.154Z,98261.56
2023-04-01T04:59:48.557Z,98257.03
2023-04-01T05:02:53.515Z,98265.81
2023-04-01T05:05:23.388Z,98257.88
2023-04-01T05:07:53.147Z,98266.75
2023-04-01T05:10:25.963Z,98266.75
2023-04-01T05:12:55.715Z,98264.00
2023-04-01T05:15:26.707Z,98267.50
2023-04-01T05:17:57.794Z,98271.06
2023-04-01T05:20:27.756Z,98270.13
2023-04-01T05:22:59.825Z,98271.06
2023-04-01T05:25:32.448Z,98282.47
2023-04-01T05:28:02.380Z,98271.06
2023-04-01T05:30:32.354Z,98285.09
2023-04-01T05:33:07.924Z,98287.03
2023-04-01T05:35:37.889Z,98282.56
2023-04-01T05:38:08.253Z,98279.22
2023-04-01T05:40:40.799Z,98287.13
2023-04-01T05:43:10.622Z,98293.38
2023-04-01T05:45:40.495Z,98293.38
2023-04-01T05:48:30.169Z,98283.75
2023-04-01T05:50:59.922Z,98286.38
2023-04-01T05:53:29.577Z,98283.84
2023-04-01T05:56:06.060Z,98290.94
2023-04-01T05:58:40.757Z,98290.00
2023-04-01T06:01:16.309Z,98292.66
2023-04-01T06:03:47.745Z,98296.13
2023-04-01T06:06:19.042Z,98298.00
2023-04-01T06:08:49.137Z,98302.34
2023-04-01T06:11:29.296Z,98301.63
2023-04-01T06:14:14.405Z,98307.94
2023-04-01T06:17:00.810Z,98315.88
2023-04-01T06:19:36.879Z,98316.91
2023-04-01T06:22:22.100Z,98307.31
2023-04-01T06:25:09.008Z,98313.53
2023-04-01T06:27:44.534Z,98311.88
2023-04-01T06:30:29.080Z,98318.91
2023-04-01T06:33:09.966Z,98318.91
2023-04-01T06:35:45.559Z,98322.41
2023-04-01T06:38:48.246Z,98314.41
2023-04-01T06:41:30.812Z,98321.38
2023-04-01T06:44:12.262Z,98322.31
2023-04-01T06:47:02.839Z,98324.00
2023-04-01T06:49:59.062Z,98331.69
2023-04-01T06:52:52.805Z,98324.41
2023-04-01T06:55:44.660Z,98321.56
2023-04-01T06:58:27.739Z,98324.94
2023-04-01T07:01:02.298Z,98332.72
2023-04-01T07:03:34.971Z,98329.25
2023-04-01T07:06:08.384Z,98335.38
2023-04-01T07:08:44.398Z,98331.78
2023-04-01T07:11:15.938Z,98333.47
2023-04-01T07:13:49.345Z,98337.06
2023-04-01T07:16:27.142Z,98344.03
2023-04-01T07:19:00.799Z,98344.03
2023-04-01T07:21:45.492Z,98335.19
2023-04-01T07:24:26.668Z,98342.13
2023-04-01T07:27:07.078Z,98349.94
2023-04-01T07:29:38.256Z,98352.50
2023-04-01T07:32:30.766Z,98358.59
2023-04-01T07:35:09.831Z,98347.22
2023-04-01T07:37:45.005Z,98365.78
2023-04-01T07:40:25.744Z,98364.94
2023-04-01T07:43:13.866Z,98363.06
2023-04-01T07:45:55.636Z,98362.94
2023-04-01T07:48:34.125Z,98371.47
2023-04-01T07:51:11.352Z,98380.88
2023-04-01T07:53:46.288Z,98378.88
2023-04-01T07:56:19.677Z,98374.22
2023-04-01T07:58:57.511Z,98389.84
2023-04-01T08:01:53.106Z,98387.94
2023-04-01T08:04:43.328Z,98390.50
2023-04-01T08:07:17.279Z,98389.63
2023-04-01T08:10:09.614Z,98398.41
2023-04-01T08:13:06.271Z,98390.50
2023-04-01T08:15:58.733Z,98393.22
2023-04-01T08:18:43.505Z,98398.59
2023-04-01T08:21:19.248Z,98402.31
2023-04-01T08:23:51.842Z,98408.56
2023-04-01T08:26:30.729Z,98409.50
2023-04-01T08:29:04.099Z,98417.19
2023-04-01T08:31:38.764Z,98417.97
2023-04-01T08:34:12.325Z,98424.91
2023-04-01T08:36:47.365Z,98417.50
2023-04-01T08:39:21.964Z,98430.50
2023-04-01T08:42:21.026Z,98428.50
2023-04-01T08:45:14.839Z,98428.28
2023-04-01T08:48:25.488Z,98435.88
2023-04-01T08:51:14.913Z,98432.81
2023-04-01T08:54:13.050Z,98438.63
2023-04-01T08:56:46.369Z,98440.53
2023-04-01T08:59:31.460Z,98444.00
2023-04-01T09:02:16.894Z,98453.81
2023-04-01T09:05:23.339Z,98454.91
2023-04-01T09:08:01.903Z,98448.03
2023-04-01T09:10:55.007Z,98454.38
2023-04-01T09:14:16.517Z,98461.66
2023-04-01T09:17:02.900Z,98456.50
2023-04-01T09:19:38.366Z,98463.59
2023-04-01T09:22:28.333Z,98476.78
2023-04-01T09:25:10.044Z,98475.75
2023-04-01T09:27:48.383Z,98479.09
2023-04-01T09:30:36.944Z,98483.22
2023-04-01T09:33:36.148Z,98489.97
2023-04-01T09:36:08.734Z,98485.53
2023-04-01T09:38:48.015Z,98488.28
2023-04-01T09:41:26.834Z,98493.69
2023-04-01T09:44:25.618Z,98487.78
2023-04-01T09:47:23.312Z,98507.22
2023-04-01T09:50:24.267Z,98493.16
2023-04-01T09:53:00.994Z,98509.88
2023-04-01T09:55:51.561Z,98506.47
2023-04-01T09:58:43.441Z,98509.22
2023-04-01T10:02:03.340Z,98519.91
2023-04-01T10:05:00.183Z,98522.75
2023-04-01T10:08:01.968Z,98519.25
2023-04-01T10:10:50.788Z,98526.34
2023-04-01T10:13:55.548Z,98526.34
2023-04-01T10:16:58.545Z,98528.16
2023-04-01T10:20:04.807Z,98533.31
2023-04-01T10:23:02.365Z,98530.56
2023-04-01T10:25:58.291Z,98545.97
2023-04-01T10:28:58.593Z,98533.09
2023-04-01T10:31:55.978Z,98546.63
2023-04-01T10:34:58.251Z,98548.03
2023-04-01T10:37:55.292Z,98550.44
2023-04-01T10:41:07.262Z,98539.44
2023-04-01T10:44:36.479Z,98548.00
2023-04-01T10:47:47.745Z,98546.94
2023-04-01T10:50:36.447Z,98549.59
2023-04-01T10:53:34.800Z,98548.53
2023-04-01T10:56:43.060Z,98553.69
2023-04-01T11:00:17.481Z,98550.13
2023-04-01T11:03:56.267Z,98556.13
2023-04-01T11:07:13.463Z,98559.94
2023-04-01T11:10:27.640Z,98565.44
2023-04-01T11:13:29.747Z,98561.31
2023-04-01T11:16:23.097Z,98570.94
2023-04-01T11:19:13.728Z,98573.25
2023-04-01T11:21:58.612Z,98565.88
2023-04-01T11:25:00.993Z,98573.47
2023-04-01T11:27:54.587Z,98577.69
2023-04-01T11:30:30.937Z,98573.47
2023-04-01T11:33:06.282Z,98581.50
2023-04-01T11:36:07.772Z,98579.81
2023-04-01T11:38:50.858Z,98582.34
2023-04-01T11:41:44.738Z,98575.03
2023-04-01T11:44:34.066Z,98596.31
2023-04-01T11:47:38.622Z,98596.41
2023-04-01T11:50:20.189Z,98599.19
2023-04-01T11:53:06.758Z,98602.66
2023-04-01T11:55:44.602Z,98602.66
2023-04-01T11:58:28.003Z,98610.69
2023-04-01T12:01:21.052Z,98615.16
2023-04-01T12:04:21.695Z,98616.22
2023-04-01T12:06:56.494Z,98624.97
2023-04-01T12:09:37.858Z,98619.78
2023-04-01T12:12:18.102Z,98633.00
2023-04-01T12:14:52.283Z,98630.38
2023-04-01T12:17:33.787Z,98634.50
2023-04-01T12:20:20.582Z,98641.38
2023-04-01T12:22:55.225Z,98639.44
2023-04-01T12:25:39.839Z,98647.28
2023-04-01T12:28:14.909Z,98645.38
2023-04-01T12:31:01.382Z,98651.41
2023-04-01T12:34:04.429Z,98651.09
2023-04-01T12:36:49.919Z,98653.41
2023-04-01T12:39:41.184Z,98661.16
2023-04-01T12:42:20.479Z,98669.69
2023-04-01T12:45:03.455Z,98666.22
2023-04-01T12:47:53.466Z,98665.06
2023-04-01T12:50:32.243Z,98679.88
2023-04-01T12:53:21.877Z,98675.94
2023-04-01T12:55:53.807Z,98678.16
2023-04-01T12:58:42.132Z,98680.38
2023-04-01T13:01:31.770Z,98681.84
2023-04-01T13:04:43.144Z,98687.03
2023-04-01T13:07:27.047Z,98688.09
2023-04-01T13:10:03.861Z,98696.25
2023-04-01T13:12:46.395Z,98693.72
2023-04-01T13:15:27.259Z,98699.84
2023-04-01T13:18:01.093Z,98699.13
2023-04-01T13:20:39.703Z,98700.19
2023-04-01T13:23:17.491Z,98700.38
2023-04-01T13:25:59.205Z,98706.63
2023-04-01T13:28:40.746Z,98704.19
2023-04-01T13:31:18.823Z,98703.56
2023-04-01T13:33:52.863Z,98713.38
2023-04-01T13:36:24.277Z,98725.03
2023-04-01T13:39:06.472Z,98717.19
2023-04-01T13:41:57.641Z,98721.22
2023-04-01T13:44:33.399Z,98716.88
2023-04-01T13:47:38.894Z,98717.63
2023-04-01T13:50:44.059Z,98726.09
2023-04-01T13:53:33.483Z,98718.97
2023-04-01T13:56:11.888Z,98724.56
2023-04-01T13:59:19.271Z,98724.56
2023-04-01T14:01:51.972Z,98728.41
2023-04-01T14:04:38.391Z,98736.78
2023-04-01T14:07:14.979Z,98733.72
2023-04-01T14:10:04.045Z,98738.16
2023-04-01T14:12:36.683Z,98741.03
2023-04-01T14:15:29.512Z,98743.69
2023-04-01T14:18:11.430Z,98746.53
2023-04-01T14:20:44.286Z,98754.59
2023-04-01T14:23:28.799Z,98751.41
2023-04-01T14:26:36.841Z,98754.47
2023-04-01T14:29:16.494Z,98760.28
2023-04-01T14:31:58.544Z,98765.47
2023-04-01T14:34:40.861Z,98772.47
2023-04-01T14:37:36.064Z,98770.44
2023-04-01T14:40:24.203Z,98764.72
2023-04-01T14:43:03.421Z,98778.16
2023-04-01T14:45:50.456Z,98775.38
2023-04-01T14:48:27.418Z,98779.63
2023-04-01T14:50:58.885Z,98781.13
2023-04-01T14:53:31.777Z,98781.84
2023-04-01T14:56:03.870Z,98787.78
2023-04-01T14:58:45.452Z,98793.91
2023-04-01T15:01:34.163Z,98787.69
2023-04-01T15:04:18.060Z,98792.03
2023-04-01T15:07:06.482Z,98796.88
2023-04-01T15:09:40.702Z,98791.41
2023-04-01T15:12:19.800Z,98804.09
2023-04-01T15:14:56.137Z,98804.53
2023-04-01T15:17:57.368Z,98804.94
2023-04-01T15:20:55.452Z,98808.38
2023-04-01T15:23:32.097Z,98810.72
2023-04-01T15:26:17.597Z,98815.06
2023-04-01T15:28:54.680Z,98816.22
2023-04-01T15:31:28.541Z,98813.94
2023-04-01T15:34:16.668Z,98815.97
2023-04-01T15:36:49.011Z,98830.16
2023-04-01T15:39:22.236Z,98828.34
2023-04-01T15:42:04.251Z,98834.50
2023-04-01T15:44:48.704Z,98843.50
2023-04-01T15:47:36.500Z,98844.66
2023-04-01T15:50:26.472Z,98848.25
2023-04-01T15:53:07.432Z,98846.66
2023-04-01T15:55:41.870Z,98848.63
2023-04-01T15:58:29.887Z,98855.75
2023-04-01T16:01:06.458Z,98854.91
2023-04-01T16:03:41.939Z,98869.91
2023-04-01T16:06:49.824Z,98857.72
2023-04-01T16:09:31.783Z,98862.69
2023-04-01T16:12:05.685Z,98868.41
2023-04-01T16:14:43.318Z,98870.50
2023-04-01T16:17:28.739Z,98871.63
2023-04-01T16:20:00.218Z,98869.31
2023-04-01T16:22:35.624Z,98877.41
2023-04-01T16:25:21.539Z,98875.94
2023-04-01T16:27:56.485Z,98883.34
2023-04-01T16:30:39.388Z,98883.50
2023-04-01T16:33:15.667Z,98880.22
2023-04-01T16:35:48.528Z,98887.41
2023-04-01T16:38:27.737Z,98897.25
2023-04-01T16:41:09.443Z,98895.53
2023-04-01T16:43:43.437Z,98904.41
2023-04-01T16:46:37.508Z,98902.69
2023-04-01T16:49:19.874Z,98905.53
2023-04-01T16:51:52.694Z,98900.25
2023-04-01T16:54:32.966Z,98917.06
2023-04-01T16:57:08.818Z,98920.66
2023-04-01T16:59:39.861Z,98925.09
2023-04-01T17:02:15.029Z,98925.19
2023-04-01T17:04:48.293Z,98933.13
2023-04-01T17:07:26.090Z,98932.44
2023-04-01T17:10:06.446Z,98934.34
2023-04-01T17:12:42.548Z,98942.47
2023-04-01T17:15:23.389Z,98951.34
2023-04-01T17:17:58.509Z,98955.78
2023-04-01T17:20:39.641Z,98954.00
2023-04-01T17:23:17.054Z,98957.56
2023-04-01T17:25:59.921Z,98955.03
2023-04-01T17:28:38.540Z,98971.81
2023-04-01T17:31:14.260Z,98970.16
2023-04-01T17:33:57.547Z,98964.94
2023-04-01T17:36:40.737Z,98968.63
2023-04-01T17:39:28.324Z,98973.16
2023-04-01T17:42:08.095Z,98983.03
2023-04-01T17:44:55.771Z,98983.16
2023-04-01T17:47:48.451Z,98986.06
2023-04-01T17:50:26.140Z,98992.28
2023-04-01T17:53:18.745Z,98992.41
2023-04-01T17:55:56.221Z,99004.84
2023-04-01T17:58:33.157Z,99006.72
2023-04-01T18:01:13.577Z,99006.72
2023-04-01T18:04:01.221Z,99012.00
2023-04-01T18:06:37.771Z,99018.22
2023-04-01T18:09:18.983Z,99019.94
2023-04-01T18:11:57.632Z,99023.50
2023-04-01T18:14:57.608Z,99037.66
2023-04-01T18:17:44.156Z,99037.66
2023-04-01T18:20:27.860Z,99040.28
2023-04-01T18:22:59.264Z,99040.28
2023-04-01T18:25:32.842Z,99050.97
2023-04-01T18:28:18.986Z,99049.28
2023-04-01T18:30:55.913Z,99052.84
2023-04-01T18:33:32.524Z,99057.28
2023-04-01T18:36:12.340Z,99067.84
2023-04-01T18:38:44.990Z,99070.56
2023-04-01T18:41:18.968Z,99066.25
2023-04-01T18:44:01.409Z,99070.75
2023-04-01T18:46:35.249Z,99080.47
2023-04-01T18:49:11.446Z,99081.50
2023-04-01T18:51:45.965Z,99085.91
2023-04-01T18:54:18.787Z,99096.47
2023-04-01T18:56:49.555Z,99091.97
2023-04-01T18:59:23.520Z,99102.44
2023-04-01T19:02:03.191Z,99098.97
2023-04-01T19:04:40.492Z,99109.53
2023-04-01T19:07:38.215Z,99107.81
2023-04-01T19:10:18.745Z,99108.84
2023-04-01T19:12:56.461Z,99104.59
2023-04-01T19:15:34.217Z,99122.34
2023-04-01T19:18:27.382Z,99117.31
2023-04-01T19:21:03.482Z,99124.56
2023-04-01T19:24:07.338Z,99119.34
2023-04-01T19:26:40.630Z,99127.34
2023-04-01T19:29:17.375Z,99130.97
2023-04-01T19:31:56.438Z,99135.47
2023-04-01T19:34:32.126Z,99140.00
2023-04-01T19:37:07.237Z,99141.75
2023-04-01T19:39:49.762Z,99143.56
2023-04-01T19:42:26.653Z,99141.75
2023-04-01T19:45:06.092Z,99138.28
2023-04-01T19:47:49.475Z,99144.31
2023-04-01T19:50:30.935Z,99142.63
2023-04-01T19:53:08.258Z,99156.59
2023-04-01T19:55:44.270Z,99153.00
2023-04-01T19:58:19.515Z,99153.84
2023-04-01T20:00:52.863Z,99156.41
2023-04-01T20:03:33.644Z,99153.75
2023-04-01T20:06:11.537Z,99161.59
2023-04-01T20:08:46.785Z,99161.59
2023-04-01T20:11:29.090Z,99167.75
2023-04-01T20:14:08.837Z,99173.84
2023-04-01T20:16:53.469Z,99179.13
2023-04-01T20:19:32.365Z,99186.97
2023-04-01T20:22:04.219Z,99180.00
2023-04-01T20:24:39.190Z,99190.56
2023-04-01T20:27:13.827Z,99195.84
2023-04-01T20:29:51.912Z,99206.31
2023-04-01T20:32:38.147Z,99215.09
2023-04-01T20:35:22.250Z,99210.66
2023-04-01T20:37:55.923Z,99209.81
2023-04-01T20:40:38.024Z,99218.50
2023-04-01T20:43:21.469Z,99222.09
2023-04-01T20:45:57.944Z,99226.44
2023-04-01T20:48:57.532Z,99220.28
2023-04-01T20:51:30.614Z,99226.34
2023-04-01T20:54:13.747Z,99227.28
2023-04-01T20:56:57.454Z,99223.78
2023-04-01T20:59:46.090Z,99221.06
2023-04-01T21:02:34.206Z,99228.03
2023-04-01T21:05:34.759Z,99230.59
2023-04-01T21:08:07.875Z,99223.53
2023-04-01T21:10:44.731Z,99227.88
2023-04-01T21:13:26.920Z,99234.00
2023-04-01T21:16:06.725Z,99234.88
2023-04-01T21:18:54.819Z,99246.28
2023-04-01T21:21:40.770Z,99249.84
2023-04-01T21:24:51.842Z,99242.78
2023-04-01T21:27:39.574Z,99249.84
2023-04-01T21:30:23.554Z,99252.47
2023-04-01T21:33:06.596Z,99260.41
2023-04-01T21:35:42.053Z,99260.41
2023-04-01T21:38:21.348Z,99261.28
2023-04-01T21:41:35.998Z,99264.75
2023-04-01T21:44:39.673Z,99271.84
2023-04-01T21:47:40.627Z,99273.50
2023-04-01T21:50:26.331Z,99279.75
2023-04-01T21:53:07.343Z,99292.09
2023-04-01T21:56:03.239Z,99293.81
2023-04-01T21:58:54.812Z,99291.91
2023-04-01T22:01:34.748Z,99298.81
2023-04-01T22:04:24.937Z,99302.16
2023-04-01T22:06:57.023Z,99298.59
2023-04-01T22:09:29.556Z,99310.00
2023-04-01T22:12:02.591Z,99314.53
2023-04-01T22:14:35.367Z,99309.38
2023-04-01T22:17:14.704Z,99325.31
2023-04-01T22:19:54.192Z,99318.69
2023-04-01T22:22:26.399Z,99325.25
2023-04-01T22:25:03.730Z,99336.19
2023-04-01T22:27:39.281Z,99328.94
2023-04-01T22:30:16.450Z,99347.81
2023-04-01T22:32:48.124Z,99343.78
2023-04-01T22:35:31.753Z,99334.38
2023-04-01T22:38:09.711Z,99341.75
2023-04-01T22:40:46.249Z,99342.94
2023-04-01T22:43:17.652Z,99353.72
2023-04-01T22:46:00.282Z,99351.31
2023-04-01T22:48:39.524Z,99361.16
2023-04-01T22:51:19.185Z,99368.41
2023-04-01T22:54:05.871Z,99367.84
2023-04-01T22:56:40.806Z,99371.66
2023-04-01T22:59:14.479Z,99379.63
2023-04-01T23:01:48.481Z,99389.41
2023-04-01T23:04:20.981Z,99395.66
2023-04-01T23:06:57.499Z,99403.75
2023-04-01T23:09:28.094Z,99406.53
2023-04-01T23:11:59.681Z,99403.19
2023-04-01T23:14:45.405Z,99426.19
2023-04-01T23:17:32.481Z,99429.06
2023-04-01T23:20:10.148Z,99437.19
2023-04-01T23:22:51.473Z,99446.19
2023-04-01T23:25:28.556Z,99450.66
2023-04-01T23:28:03.464Z,99454.22
2023-04-01T23:30:52.121Z,99461.28
2023-04-01T23:33:27.338Z,99477.25
2023-04-01T23:36:06.021Z,99478.31
2023-04-01T23:38:42.782Z,99486.41
2023-04-01T23:41:20.178Z,99482.28
2023-04-01T23:43:54.477Z,99489.69
2023-04-01T23:46:24.752Z,99490.91
2023-04-01T23:48:54.622Z,99498.28
2023-04-01T23:51:26.584Z,99513.50
2023-04-01T23:54:06.516Z,99513.69
2023-04-01T23:56:39.486Z,99514.75
2023-04-01T23:59:09.157Z,99529.03
